Time;durP1;ratioP1;P1;durP2;ratioP2;P2;SDS_P1;SDS_P2;PMS_P1;PMS_P2;Temp;Humidity;BMP_temperature;BMP_pressure;BME280_temperature;BME280_humidity;BME280_pressure;Samples;Min_cycle;Max_cycle;Signal;HPM_P1;HPM_P2
2023/09/25 00:00:50;;;;;;;3.60;1.67;;;14.20;99.90;;;;;;5015681;28;20485;-57
2023/09/25 00:03:16;;;;;;;2.78;1.55;;;14.20;99.90;;;;;;5027729;28;20064;-58
2023/09/25 00:05:42;;;;;;;3.70;1.85;;;14.20;99.90;;;;;;5016349;28;20041;-59
2023/09/25 00:08:08;;;;;;;4.40;1.50;;;14.20;99.90;;;;;;5011774;28;20535;-59
2023/09/25 00:10:36;;;;;;;5.35;1.90;;;14.20;99.90;;;;;;5014919;28;20046;-57
2023/09/25 00:13:01;;;;;;;2.50;1.60;;;14.20;99.90;;;;;;5009206;28;20034;-58
2023/09/25 00:15:27;;;;;;;2.75;1.65;;;14.20;99.90;;;;;;5014409;28;20103;-57
2023/09/25 00:17:53;;;;;;;4.22;1.50;;;14.20;99.90;;;;;;5014958;28;20061;-58
2023/09/25 00:20:24;;;;;;;3.25;1.85;;;14.20;99.90;;;;;;5014135;28;20449;-57
2023/09/25 00:22:51;;;;;;;3.20;1.70;;;14.20;99.90;;;;;;5027496;28;20056;-57
2023/09/25 00:25:20;;;;;;;3.28;1.77;;;14.20;99.90;;;;;;5011932;28;20041;-57
2023/09/25 00:27:46;;;;;;;3.55;1.65;;;14.20;99.90;;;;;;5012181;28;20034;-57
2023/09/25 00:30:13;;;;;;;7.03;2.58;;;14.20;99.90;;;;;;5013776;28;20096;-56
2023/09/25 00:32:39;;;;;;;8.85;2.00;;;14.20;99.90;;;;;;5013341;28;20081;-56
2023/09/25 00:35:07;;;;;;;3.00;1.80;;;14.20;99.90;;;;;;5027063;28;20129;-57
2023/09/25 00:37:34;;;;;;;3.95;1.85;;;14.20;99.90;;;;;;5013803;28;20052;-58
2023/09/25 00:40:12;;;;;;;3.72;1.60;;;14.10;99.90;;;;;;5027548;28;20087;-58
2023/09/25 00:42:41;;;;;;;2.67;1.50;;;14.20;99.90;;;;;;5013287;28;20056;-58
2023/09/25 00:45:09;;;;;;;3.22;1.80;;;14.20;99.90;;;;;;4999761;28;20380;-58
2023/09/25 00:47:35;;;;;;;4.70;1.88;;;14.10;99.90;;;;;;4978582;28;20476;-57
2023/09/25 00:50:03;;;;;;;2.88;1.80;;;14.10;99.90;;;;;;4981048;28;20540;-58
2023/09/25 00:52:32;;;;;;;4.28;2.20;;;14.10;99.90;;;;;;4993295;28;20367;-58
2023/09/25 00:54:59;;;;;;;4.43;2.08;;;14.10;99.90;;;;;;4993207;28;20080;-57
2023/09/25 00:57:25;;;;;;;4.72;1.92;;;14.10;99.90;;;;;;4991206;28;20217;-57
2023/09/25 00:59:52;;;;;;;3.03;1.85;;;14.10;99.90;;;;;;4979477;28;20096;-56
2023/09/25 01:02:18;;;;;;;4.38;1.70;;;14.00;99.90;;;;;;4992975;28;20401;-58
2023/09/25 01:04:44;;;;;;;4.25;2.10;;;14.00;99.90;;;;;;4981020;28;20042;-57
2023/09/25 01:07:09;;;;;;;2.92;1.80;;;14.00;99.90;;;;;;4994022;28;20051;-58
2023/09/25 01:09:35;;;;;;;3.45;1.80;;;14.00;99.90;;;;;;4991042;28;20561;-58
2023/09/25 01:12:01;;;;;;;3.30;1.90;;;14.00;99.90;;;;;;4994096;28;20409;-57
2023/09/25 01:14:27;;;;;;;3.40;2.00;;;14.00;99.90;;;;;;4972935;28;20042;-57
2023/09/25 01:16:53;;;;;;;2.40;1.75;;;13.90;99.90;;;;;;4990296;28;20609;-58
2023/09/25 01:19:19;;;;;;;3.78;2.00;;;14.00;99.90;;;;;;4991308;28;20080;-58
2023/09/25 01:21:47;;;;;;;4.70;2.20;;;13.90;99.90;;;;;;4977449;28;20310;-58
2023/09/25 01:24:13;;;;;;;3.17;2.08;;;13.90;99.90;;;;;;4994070;28;20141;-56
2023/09/25 01:26:39;;;;;;;3.38;2.17;;;13.90;99.90;;;;;;4976222;28;20561;-58
2023/09/25 01:29:05;;;;;;;3.30;1.98;;;13.90;99.90;;;;;;4979505;28;20073;-58
2023/09/25 01:31:31;;;;;;;5.82;2.05;;;13.90;99.90;;;;;;4991583;28;20124;-58
2023/09/25 01:33:57;;;;;;;3.28;2.05;;;13.90;99.90;;;;;;4993631;28;20030;-58
2023/09/25 01:36:23;;;;;;;3.10;2.17;;;13.80;99.90;;;;;;4991470;28;20038;-58
2023/09/25 01:38:49;;;;;;;2.50;1.92;;;13.80;99.90;;;;;;4994333;28;20425;-57
2023/09/25 01:41:15;;;;;;;4.13;2.17;;;13.70;99.90;;;;;;4978123;28;20048;-58
2023/09/25 01:43:43;;;;;;;4.13;2.28;;;13.80;99.90;;;;;;4991251;28;20048;-58
2023/09/25 01:46:09;;;;;;;4.65;2.25;;;13.80;99.90;;;;;;5013238;28;20081;-57
2023/09/25 01:48:35;;;;;;;2.25;2.00;;;13.70;99.90;;;;;;5009833;28;20041;-57
2023/09/25 01:51:09;;;;;;;3.15;2.03;;;13.70;99.90;;;;;;5015938;28;20489;-58
2023/09/25 01:53:35;;;;;;;4.00;2.10;;;13.70;99.90;;;;;;5011294;28;20139;-57
2023/09/25 01:56:11;;;;;;;3.45;2.38;;;13.70;99.90;;;;;;5011794;28;20555;-58
2023/09/25 01:58:37;;;;;;;5.38;2.28;;;13.60;99.90;;;;;;5009221;28;20259;-58
2023/09/25 02:01:03;;;;;;;6.22;2.65;;;13.70;99.90;;;;;;5011735;28;20057;-58
2023/09/25 02:03:30;;;;;;;4.00;2.20;;;13.60;99.90;;;;;;5011903;28;20060;-57
2023/09/25 02:05:56;;;;;;;5.05;2.28;;;13.60;99.90;;;;;;5028547;28;20124;-57
2023/09/25 02:08:22;;;;;;;4.00;2.33;;;13.60;99.90;;;;;;5025521;28;20405;-57
2023/09/25 02:10:48;;;;;;;4.00;2.40;;;13.60;99.90;;;;;;5012153;28;20049;-58
2023/09/25 02:13:14;;;;;;;5.10;2.90;;;13.60;99.90;;;;;;5011131;28;20033;-58
2023/09/25 02:15:40;;;;;;;3.47;2.58;;;13.60;99.90;;;;;;5010717;28;20617;-57
2023/09/25 02:18:06;;;;;;;4.25;2.40;;;13.50;99.90;;;;;;5010427;28;20591;-58
2023/09/25 02:20:31;;;;;;;3.03;2.17;;;13.50;99.90;;;;;;5014001;28;20449;-57
2023/09/25 02:22:57;;;;;;;3.30;2.38;;;13.50;99.90;;;;;;5007763;28;20041;-58
2023/09/25 02:25:23;;;;;;;6.97;2.47;;;13.50;99.90;;;;;;5012326;28;20390;-58
2023/09/25 02:27:48;;;;;;;4.47;2.47;;;13.50;99.90;;;;;;5010233;28;20100;-57
2023/09/25 02:30:14;;;;;;;6.07;2.30;;;13.50;99.90;;;;;;5026133;28;20780;-58
2023/09/25 02:32:43;;;;;;;3.85;2.50;;;13.40;99.90;;;;;;5012236;28;20481;-57
2023/09/25 02:35:10;;;;;;;3.95;2.65;;;13.40;99.90;;;;;;5008978;28;20049;-58
2023/09/25 02:37:37;;;;;;;4.05;2.50;;;13.40;99.90;;;;;;5012451;28;20501;-57
2023/09/25 02:40:07;;;;;;;3.95;2.38;;;13.40;99.90;;;;;;5012476;28;20576;-57
2023/09/25 02:42:33;;;;;;;3.55;2.20;;;13.30;99.90;;;;;;5007585;28;20127;-56
2023/09/25 02:44:58;;;;;;;3.28;2.38;;;13.30;99.90;;;;;;5011378;28;20054;-58
2023/09/25 02:47:24;;;;;;;5.40;2.47;;;13.30;99.90;;;;;;5011986;28;20048;-58
2023/09/25 02:49:50;;;;;;;6.35;2.35;;;13.30;99.90;;;;;;5007603;28;20160;-58
2023/09/25 02:52:15;;;;;;;5.80;2.60;;;13.30;99.90;;;;;;5013200;28;20046;-58
2023/09/25 02:54:41;;;;;;;7.18;2.72;;;13.30;99.90;;;;;;5012204;28;20037;-57
2023/09/25 02:57:07;;;;;;;5.63;2.42;;;13.30;99.90;;;;;;5009889;28;20101;-58
2023/09/25 02:59:33;;;;;;;2.67;2.40;;;13.30;99.90;;;;;;5007211;28;20056;-57
2023/09/25 03:01:58;;;;;;;3.25;2.50;;;13.20;99.90;;;;;;5009308;28;20044;-57
2023/09/25 03:04:24;;;;;;;6.68;2.38;;;13.20;99.90;;;;;;5007971;28;20473;-55
2023/09/25 03:06:50;;;;;;;6.53;2.55;;;13.20;99.90;;;;;;5009750;28;20053;-58
2023/09/25 03:09:16;;;;;;;3.90;2.88;;;13.20;99.90;;;;;;5009372;28;20538;-57
2023/09/25 03:11:42;;;;;;;4.82;2.53;;;13.20;99.90;;;;;;5012914;28;20048;-58
2023/09/25 03:14:08;;;;;;;5.05;2.95;;;13.20;99.90;;;;;;5005960;28;20219;-57
2023/09/25 03:16:34;;;;;;;5.40;2.70;;;13.10;99.90;;;;;;5008279;28;20041;-58
2023/09/25 03:18:59;;;;;;;5.28;2.95;;;13.10;99.90;;;;;;5011475;28;20428;-57
2023/09/25 03:21:25;;;;;;;3.88;2.60;;;13.10;99.90;;;;;;5011827;28;20088;-58
2023/09/25 03:23:51;;;;;;;5.13;2.80;;;13.10;99.90;;;;;;5011848;28;20049;-58
2023/09/25 03:26:19;;;;;;;3.95;2.47;;;13.10;99.90;;;;;;5010561;28;20034;-58
2023/09/25 03:28:46;;;;;;;3.88;2.58;;;13.10;99.90;;;;;;5008694;28;20061;-57
2023/09/25 03:31:12;;;;;;;6.32;2.65;;;13.10;99.90;;;;;;5023623;28;20045;-57
2023/09/25 03:33:40;;;;;;;6.20;2.70;;;13.10;99.90;;;;;;5014538;28;20041;-57
2023/09/25 03:36:06;;;;;;;4.68;2.92;;;13.10;99.90;;;;;;5013065;28;20042;-58
2023/09/25 03:38:36;;;;;;;3.50;2.50;;;13.10;99.90;;;;;;5008199;28;20049;-58
2023/09/25 03:41:01;;;;;;;5.95;2.60;;;13.10;99.90;;;;;;5012666;28;20482;-57
2023/09/25 03:43:27;;;;;;;3.80;2.50;;;13.10;99.90;;;;;;5009938;28;20049;-58
2023/09/25 03:45:53;;;;;;;3.50;2.75;;;13.00;99.90;;;;;;5007644;28;20176;-57
2023/09/25 03:48:19;;;;;;;4.15;2.70;;;13.00;99.90;;;;;;5013179;28;20092;-57
2023/09/25 03:50:44;;;;;;;4.43;2.47;;;13.00;99.90;;;;;;5008853;28;20087;-56
2023/09/25 03:53:11;;;;;;;3.35;2.65;;;13.00;99.90;;;;;;5012597;28;20473;-57
2023/09/25 03:55:38;;;;;;;3.58;2.40;;;13.00;99.90;;;;;;5010674;28;20040;-57
2023/09/25 03:58:04;;;;;;;5.25;2.58;;;13.00;99.90;;;;;;5009663;28;21022;-57
2023/09/25 04:00:30;;;;;;;4.53;2.38;;;13.00;99.90;;;;;;5010222;28;20029;-57
2023/09/25 04:02:55;;;;;;;3.50;2.78;;;13.00;99.90;;;;;;5013882;28;20520;-58
2023/09/25 04:05:21;;;;;;;4.28;2.65;;;13.00;99.90;;;;;;5012621;28;20409;-57
2023/09/25 04:07:47;;;;;;;4.72;2.65;;;13.00;99.90;;;;;;5013874;28;20048;-56
2023/09/25 04:10:13;;;;;;;5.70;2.80;;;13.00;99.90;;;;;;5015481;28;20033;-57
2023/09/25 04:12:39;;;;;;;3.28;2.53;;;12.90;99.90;;;;;;5013507;28;20050;-56
2023/09/25 04:15:10;;;;;;;4.65;2.63;;;12.90;99.90;;;;;;5014689;28;20053;-58
2023/09/25 04:17:38;;;;;;;3.95;2.55;;;12.90;99.90;;;;;;5013741;28;20057;-57
2023/09/25 04:20:16;;;;;;;4.25;2.60;;;12.90;99.90;;;;;;5027650;28;20050;-58
2023/09/25 04:22:42;;;;;;;7.75;3.05;;;12.90;99.90;;;;;;4998477;28;20077;-57
2023/09/25 04:25:12;;;;;;;3.38;2.38;;;12.90;99.90;;;;;;5015370;28;20168;-56
2023/09/25 04:27:38;;;;;;;3.92;2.50;;;12.90;99.90;;;;;;5024536;28;20111;-58
2023/09/25 04:30:04;;;;;;;5.07;3.00;;;12.90;99.90;;;;;;5026720;28;20042;-58
2023/09/25 04:32:32;;;;;;;5.22;2.70;;;12.90;99.90;;;;;;5013558;28;20300;-56
2023/09/25 04:34:59;;;;;;;3.15;2.55;;;12.90;99.90;;;;;;5032786;28;20037;-57
2023/09/25 04:37:25;;;;;;;5.05;2.75;;;12.90;99.90;;;;;;5016301;28;20120;-57
2023/09/25 04:39:51;;;;;;;3.95;2.70;;;12.90;99.90;;;;;;5009385;28;20481;-57
2023/09/25 04:42:17;;;;;;;6.90;2.80;;;12.90;99.90;;;;;;5015604;28;20505;-56
2023/09/25 04:44:43;;;;;;;4.63;2.70;;;12.90;99.90;;;;;;5013851;28;20061;-56
2023/09/25 04:47:10;;;;;;;4.85;2.75;;;12.90;99.90;;;;;;5011974;28;20048;-57
2023/09/25 04:49:35;;;;;;;2.90;2.60;;;12.90;99.90;;;;;;5006188;28;20607;-57
2023/09/25 04:52:01;;;;;;;3.83;2.78;;;12.90;99.90;;;;;;4997065;28;20124;-58
2023/09/25 04:54:27;;;;;;;4.03;2.42;;;12.90;99.90;;;;;;5015723;28;20065;-57
2023/09/25 04:56:53;;;;;;;6.10;3.17;;;12.90;99.90;;;;;;5010177;28;20042;-57
2023/09/25 04:59:19;;;;;;;6.63;3.50;;;12.90;99.90;;;;;;5008028;28;20095;-57
2023/09/25 05:01:44;;;;;;;5.25;2.70;;;12.90;99.90;;;;;;5011367;28;20041;-58
2023/09/25 05:04:10;;;;;;;5.38;2.83;;;12.90;99.90;;;;;;5008688;28;20129;-57
2023/09/25 05:06:36;;;;;;;4.03;2.78;;;12.90;99.90;;;;;;5009696;28;20050;-58
2023/09/25 05:09:02;;;;;;;4.50;3.30;;;12.90;99.90;;;;;;5008416;28;20175;-57
2023/09/25 05:11:28;;;;;;;6.53;3.03;;;12.90;99.90;;;;;;5012335;28;20041;-57
2023/09/25 05:13:54;;;;;;;5.55;2.90;;;12.80;99.90;;;;;;4994362;28;20041;-57
2023/09/25 05:16:19;;;;;;;5.55;3.15;;;12.80;99.90;;;;;;4983229;28;20037;-57
2023/09/25 05:18:45;;;;;;;4.70;3.10;;;12.80;99.90;;;;;;5000114;28;20298;-57
2023/09/25 05:21:11;;;;;;;6.82;2.95;;;12.80;99.90;;;;;;5012699;28;20037;-58
2023/09/25 05:23:37;;;;;;;5.60;3.08;;;12.80;99.90;;;;;;5013738;28;20088;-57
2023/09/25 05:26:02;;;;;;;3.67;3.20;;;12.80;99.90;;;;;;5009281;28;20485;-58
2023/09/25 05:28:29;;;;;;;7.13;3.50;;;12.80;99.90;;;;;;5005210;28;20037;-56
2023/09/25 05:30:55;;;;;;;7.82;2.75;;;12.80;99.90;;;;;;5012344;28;20111;-57
2023/09/25 05:33:21;;;;;;;5.10;3.10;;;12.80;99.90;;;;;;5000505;28;20037;-58
2023/09/25 05:35:48;;;;;;;5.80;3.22;;;12.80;99.90;;;;;;4993866;28;20067;-58
2023/09/25 05:38:14;;;;;;;5.30;3.08;;;12.80;99.90;;;;;;5011090;28;20116;-58
2023/09/25 05:40:39;;;;;;;7.85;3.20;;;12.70;99.90;;;;;;5000877;28;20053;-58
2023/09/25 05:43:05;;;;;;;4.43;2.92;;;12.70;99.90;;;;;;5009425;28;20059;-57
2023/09/25 05:45:31;;;;;;;4.50;3.33;;;12.70;99.90;;;;;;5012135;28;20054;-58
2023/09/25 05:47:57;;;;;;;4.78;3.03;;;12.70;99.90;;;;;;5011160;28;20541;-58
2023/09/25 05:50:26;;;;;;;6.10;3.25;;;12.70;99.90;;;;;;5007005;28;20045;-58
2023/09/25 05:52:52;;;;;;;5.15;3.40;;;12.70;99.90;;;;;;5012534;28;20422;-57
2023/09/25 05:55:18;;;;;;;5.70;3.75;;;12.70;99.90;;;;;;5023643;28;20644;-58
2023/09/25 05:57:44;;;;;;;6.68;3.33;;;12.70;99.90;;;;;;5030524;28;20512;-58
2023/09/25 06:00:15;;;;;;;4.72;3.00;;;12.70;99.90;;;;;;5012416;28;20049;-57
2023/09/25 06:02:42;;;;;;;5.33;3.30;;;12.70;99.90;;;;;;5012170;28;20060;-57
2023/09/25 06:05:09;;;;;;;5.05;3.17;;;12.70;99.90;;;;;;5012929;28;20382;-58
2023/09/25 06:07:35;;;;;;;4.13;3.15;;;12.70;99.90;;;;;;5008254;28;20046;-61
2023/09/25 06:10:04;;;;;;;5.25;3.05;;;12.70;99.90;;;;;;5022219;28;20041;-61
2023/09/25 06:12:31;;;;;;;5.55;3.00;;;12.70;99.90;;;;;;5013621;28;20374;-61
2023/09/25 06:14:57;;;;;;;5.13;3.10;;;12.70;99.90;;;;;;5011473;28;20038;-61
2023/09/25 06:17:26;;;;;;;4.68;2.97;;;12.70;99.90;;;;;;4996454;28;20038;-60
2023/09/25 06:19:53;;;;;;;6.30;2.78;;;12.80;99.90;;;;;;5023445;28;20060;-61
2023/09/25 06:22:21;;;;;;;6.05;3.03;;;12.80;99.90;;;;;;5013950;28;20045;-61
2023/09/25 06:24:47;;;;;;;8.43;3.03;;;12.80;99.90;;;;;;5009332;28;20060;-61
2023/09/25 06:27:13;;;;;;;5.90;2.88;;;12.80;99.90;;;;;;5011491;28;20034;-61
2023/09/25 06:29:39;;;;;;;5.13;3.08;;;12.90;99.90;;;;;;5011678;28;20052;-61
2023/09/25 06:32:04;;;;;;;7.63;3.00;;;12.90;99.90;;;;;;5014307;28;20033;-61
2023/09/25 06:34:30;;;;;;;3.88;2.90;;;12.90;99.90;;;;;;5011979;28;20436;-62
2023/09/25 06:36:56;;;;;;;4.88;3.00;;;12.90;99.90;;;;;;4995174;28;20033;-61
2023/09/25 06:39:23;;;;;;;9.93;2.90;;;12.90;99.90;;;;;;4994927;28;20382;-61
2023/09/25 06:41:48;;;;;;;4.80;2.72;;;13.00;99.90;;;;;;5011127;28;20570;-62
2023/09/25 06:44:14;;;;;;;4.68;2.72;;;13.00;99.90;;;;;;5023153;28;20045;-61
2023/09/25 06:46:42;;;;;;;5.10;3.00;;;13.00;99.90;;;;;;5015173;28;20648;-62
2023/09/25 06:49:07;;;;;;;7.57;3.20;;;13.00;99.90;;;;;;5012496;28;20038;-59
2023/09/25 06:51:33;;;;;;;4.15;2.90;;;13.10;99.90;;;;;;4999577;28;20053;-61
2023/09/25 06:53:59;;;;;;;5.97;2.92;;;13.10;99.90;;;;;;5024913;28;20098;-62
2023/09/25 06:56:25;;;;;;;5.93;2.90;;;13.10;99.90;;;;;;5026744;28;20034;-61
2023/09/25 06:58:53;;;;;;;8.27;2.58;;;13.10;99.90;;;;;;5013068;28;20048;-61
2023/09/25 07:01:20;;;;;;;8.18;3.10;;;13.20;99.90;;;;;;5025826;28;20797;-60
2023/09/25 07:03:46;;;;;;;5.53;3.13;;;13.20;99.90;;;;;;5012128;28;20041;-61
2023/09/25 07:06:11;;;;;;;4.03;2.60;;;13.20;99.90;;;;;;5010882;28;20553;-61
2023/09/25 07:08:38;;;;;;;3.60;2.55;;;13.30;99.90;;;;;;5012113;28;20037;-61
2023/09/25 07:11:04;;;;;;;3.67;2.60;;;13.30;99.90;;;;;;5027680;28;20124;-61
2023/09/25 07:13:32;;;;;;;4.63;2.60;;;13.30;99.90;;;;;;5010125;28;20034;-61
2023/09/25 07:16:11;;;;;;;7.78;2.65;;;13.40;99.90;;;;;;4999627;28;20045;-61
2023/09/25 07:18:37;;;;;;;7.72;2.67;;;13.40;99.90;;;;;;5014780;28;20050;-62
2023/09/25 07:21:05;;;;;;;5.45;2.58;;;13.40;99.90;;;;;;5011945;28;20045;-61
2023/09/25 07:23:31;;;;;;;3.30;2.65;;;13.50;99.90;;;;;;5011388;28;20130;-61
2023/09/25 07:26:09;;;;;;;4.82;2.72;;;13.50;99.90;;;;;;5011196;28;20088;-61
2023/09/25 07:28:37;;;;;;;3.67;2.40;;;13.60;99.90;;;;;;5026183;28;20045;-60
2023/09/25 07:31:05;;;;;;;4.82;2.67;;;13.60;99.90;;;;;;4999490;28;20128;-62
2023/09/25 07:33:32;;;;;;;4.85;2.38;;;13.70;99.90;;;;;;5026995;28;20056;-61
2023/09/25 07:35:59;;;;;;;4.80;2.63;;;13.70;99.90;;;;;;5025598;28;20065;-62
2023/09/25 07:38:26;;;;;;;4.63;2.97;;;13.80;99.90;;;;;;5000937;28;20092;-61
2023/09/25 07:40:51;;;;;;;5.65;2.55;;;13.80;99.90;;;;;;5017219;28;20451;-61
2023/09/25 07:43:19;;;;;;;5.07;2.60;;;13.90;99.90;;;;;;5016599;28;20050;-61
2023/09/25 07:45:50;;;;;;;3.33;2.50;;;13.90;99.90;;;;;;5016454;28;20056;-61
2023/09/25 07:48:16;;;;;;;3.70;2.47;;;14.00;99.90;;;;;;5014794;28;20045;-61
2023/09/25 07:50:45;;;;;;;3.70;2.47;;;14.10;99.90;;;;;;5015896;28;20049;-61
2023/09/25 07:53:12;;;;;;;5.78;2.40;;;14.10;99.90;;;;;;5017701;28;20112;-61
2023/09/25 07:55:38;;;;;;;5.05;2.90;;;14.20;99.90;;;;;;5012908;28;20932;-61
2023/09/25 07:58:04;;;;;;;4.38;2.20;;;14.30;99.90;;;;;;5030465;28;20103;-61
2023/09/25 08:00:40;;;;;;;4.25;2.53;;;14.30;99.90;;;;;;5016734;28;20515;-62
2023/09/25 08:03:06;;;;;;;4.90;2.45;;;14.40;99.90;;;;;;5015335;28;20053;-61
2023/09/25 08:05:33;;;;;;;4.90;2.72;;;14.40;99.90;;;;;;5019635;28;20053;-60
2023/09/25 08:07:59;;;;;;;5.05;2.42;;;14.50;99.90;;;;;;5020784;28;20052;-62
2023/09/25 08:10:25;;;;;;;4.13;2.78;;;14.50;99.90;;;;;;5019066;28;20045;-61
2023/09/25 08:12:50;;;;;;;4.82;2.95;;;14.50;99.90;;;;;;5015999;28;20485;-60
2023/09/25 08:15:16;;;;;;;3.63;2.45;;;14.60;99.90;;;;;;5015791;28;20384;-62
2023/09/25 08:17:44;;;;;;;4.75;2.47;;;14.60;99.90;;;;;;5015296;28;20450;-61
2023/09/25 08:20:16;;;;;;;4.57;2.40;;;14.60;99.90;;;;;;5016023;28;20046;-61
2023/09/25 08:22:43;;;;;;;3.22;2.58;;;14.70;99.90;;;;;;5013346;28;20528;-61
2023/09/25 08:25:09;;;;;;;4.20;2.85;;;14.70;99.90;;;;;;5015169;28;20037;-61
2023/09/25 08:27:39;;;;;;;6.22;2.67;;;14.80;99.90;;;;;;5013179;28;20038;-61
2023/09/25 08:30:06;;;;;;;5.47;2.50;;;14.90;99.90;;;;;;5015711;28;20469;-61
2023/09/25 08:32:32;;;;;;;6.80;2.40;;;15.00;99.90;;;;;;5027744;28;20056;-62
2023/09/25 08:35:02;;;;;;;4.22;2.60;;;15.00;99.90;;;;;;5028555;28;20029;-62
2023/09/25 08:37:28;;;;;;;3.28;2.50;;;15.10;99.90;;;;;;5011354;28;20482;-61
2023/09/25 08:39:55;;;;;;;4.40;2.42;;;15.20;99.90;;;;;;5016366;28;20080;-62
2023/09/25 08:42:24;;;;;;;6.13;2.92;;;15.30;99.90;;;;;;5014681;28;20048;-62
2023/09/25 08:44:51;;;;;;;5.38;2.58;;;15.40;99.90;;;;;;5014237;28;20452;-61
2023/09/25 08:47:22;;;;;;;4.18;2.33;;;15.50;99.90;;;;;;5014572;28;20049;-62
2023/09/25 08:49:51;;;;;;;5.82;2.67;;;15.70;99.90;;;;;;5013872;28;20053;-62
2023/09/25 08:52:18;;;;;;;8.32;2.50;;;15.80;99.90;;;;;;5029288;28;20441;-62
2023/09/25 08:54:48;;;;;;;2.75;2.30;;;15.90;99.90;;;;;;5015042;28;20078;-62
2023/09/25 08:57:15;;;;;;;6.97;2.35;;;16.00;99.90;;;;;;5013964;28;20061;-61
2023/09/25 08:59:45;;;;;;;4.72;2.30;;;16.10;99.90;;;;;;5017307;28;20489;-62
2023/09/25 09:02:12;;;;;;;7.00;2.50;;;16.30;99.90;;;;;;5014673;28;20041;-62
2023/09/25 09:04:38;;;;;;;4.32;2.40;;;16.40;99.90;;;;;;5013477;28;20049;-62
2023/09/25 09:07:15;;;;;;;3.95;2.20;;;16.40;99.90;;;;;;5027616;28;20045;-62
2023/09/25 09:09:43;;;;;;;6.35;2.75;;;16.50;99.90;;;;;;5012622;28;20121;-62
2023/09/25 09:12:09;;;;;;;3.97;2.33;;;16.60;99.90;;;;;;5024051;28;20061;-62
2023/09/25 09:14:40;;;;;;;3.50;2.53;;;16.60;99.90;;;;;;5027063;28;20111;-62
2023/09/25 09:17:08;;;;;;;3.42;2.45;;;16.70;99.90;;;;;;5016473;28;20048;-63
2023/09/25 09:19:52;;;;;;;6.57;2.60;;;16.80;99.90;;;;;;5027867;28;20060;-62
2023/09/25 09:22:21;;;;;;;4.10;2.67;;;16.80;99.90;;;;;;5014880;28;20040;-62
2023/09/25 09:24:49;;;;;;;4.60;2.30;;;16.90;99.90;;;;;;5013552;28;20037;-62
2023/09/25 09:27:20;;;;;;;9.02;2.70;;;17.00;99.90;;;;;;5016673;28;20037;-62
2023/09/25 09:29:47;;;;;;;4.22;2.40;;;17.00;99.90;;;;;;5013274;28;20058;-62
2023/09/25 09:32:14;;;;;;;4.28;2.35;;;17.00;99.90;;;;;;5031067;28;20052;-62
2023/09/25 09:34:40;;;;;;;5.00;2.50;;;17.10;99.90;;;;;;5012596;28;20690;-62
2023/09/25 09:37:08;;;;;;;2.63;1.92;;;17.20;99.90;;;;;;5016202;28;20169;-62
2023/09/25 09:39:35;;;;;;;5.32;2.47;;;17.30;99.90;;;;;;4998021;28;20037;-62
2023/09/25 09:42:05;;;;;;;4.20;2.25;;;17.30;99.90;;;;;;5013871;28;20045;-62
2023/09/25 09:44:32;;;;;;;4.55;2.47;;;17.50;99.90;;;;;;5013846;28;20393;-62
2023/09/25 09:47:05;;;;;;;5.97;2.67;;;17.60;99.90;;;;;;5012434;28;20120;-62
2023/09/25 09:49:36;;;;;;;2.80;2.28;;;17.70;99.90;;;;;;5030356;28;20054;-62
2023/09/25 09:52:02;;;;;;;5.05;2.30;;;17.80;99.90;;;;;;5022170;28;20049;-62
2023/09/25 09:54:32;;;;;;;4.35;2.33;;;17.80;99.90;;;;;;5029091;28;20148;-62
2023/09/25 09:57:01;;;;;;;5.20;2.20;;;17.90;99.90;;;;;;5014721;28;20045;-62
2023/09/25 09:59:27;;;;;;;4.88;2.45;;;18.00;99.90;;;;;;5011471;28;20627;-62
2023/09/25 10:01:54;;;;;;;4.75;2.47;;;18.10;99.90;;;;;;5029401;28;20042;-62
2023/09/25 10:04:20;;;;;;;5.20;2.13;;;18.20;99.70;;;;;;5015448;28;20040;-62
2023/09/25 10:06:58;;;;;;;4.28;2.38;;;18.20;99.70;;;;;;5030803;28;20049;-63
2023/09/25 10:09:26;;;;;;;8.10;2.15;;;18.30;99.70;;;;;;5028862;28;20037;-62
2023/09/25 10:11:54;;;;;;;4.72;1.98;;;18.40;99.80;;;;;;5002869;28;20156;-63
2023/09/25 10:14:25;;;;;;;2.60;2.25;;;18.60;99.80;;;;;;5027330;28;20501;-62
2023/09/25 10:17:04;;;;;;;3.83;2.08;;;18.70;99.50;;;;;;5026279;28;20080;-63
2023/09/25 10:19:37;;;;;;;4.13;2.10;;;18.80;98.80;;;;;;5014868;28;20504;-63
2023/09/25 10:22:25;;;;;;;3.85;2.30;;;18.90;98.80;;;;;;5014244;28;20571;-62
2023/09/25 10:25:24;;;;;;;3.45;1.90;;;19.00;98.60;;;;;;5017772;28;20041;-62
2023/09/25 10:27:52;;;;;;;5.50;2.40;;;19.10;98.30;;;;;;5004735;28;20054;-62
2023/09/25 10:30:18;;;;;;;6.68;2.30;;;19.20;97.60;;;;;;5011589;28;20107;-63
2023/09/25 10:32:55;;;;;;;7.00;2.20;;;19.20;97.70;;;;;;5015027;28;20034;-63
2023/09/25 10:35:44;;;;;;;4.53;2.00;;;19.40;97.80;;;;;;5013634;28;20033;-62
2023/09/25 10:38:28;;;;;;;7.75;2.40;;;19.50;98.00;;;;;;5014004;28;20112;-63
2023/09/25 10:40:55;;;;;;;6.03;2.63;;;19.70;97.90;;;;;;5013840;28;20922;-62
2023/09/25 10:43:24;;;;;;;4.45;2.47;;;19.80;97.30;;;;;;5001700;28;20054;-63
2023/09/25 10:45:53;;;;;;;4.45;2.80;;;19.80;96.90;;;;;;5012836;28;20060;-63
2023/09/25 10:48:20;;;;;;;7.20;2.60;;;19.90;96.90;;;;;;5012858;28;20052;-63
2023/09/25 10:50:47;;;;;;;4.78;2.30;;;20.00;96.30;;;;;;5014568;28;20536;-63
2023/09/25 10:53:14;;;;;;;3.78;2.13;;;20.00;96.10;;;;;;5029419;28;20322;-63
2023/09/25 10:55:40;;;;;;;8.25;2.75;;;20.10;96.00;;;;;;5013796;28;20474;-63
2023/09/25 10:58:09;;;;;;;6.72;2.50;;;20.20;96.00;;;;;;5013865;28;20046;-63
2023/09/25 11:00:37;;;;;;;4.90;2.13;;;20.40;96.00;;;;;;5027985;28;20128;-63
2023/09/25 11:03:04;;;;;;;5.85;2.50;;;20.50;95.70;;;;;;5026853;28;20045;-63
2023/09/25 11:05:32;;;;;;;4.82;2.13;;;20.70;95.50;;;;;;5014129;28;20037;-63
2023/09/25 11:07:59;;;;;;;4.22;1.88;;;20.80;95.30;;;;;;5017631;28;20057;-63
2023/09/25 11:10:32;;;;;;;4.40;1.90;;;20.90;94.60;;;;;;5014062;28;20044;-63
2023/09/25 11:13:00;;;;;;;2.95;1.83;;;20.90;94.20;;;;;;5014103;28;20037;-63
2023/09/25 11:15:27;;;;;;;7.32;2.00;;;21.00;93.80;;;;;;5016309;28;20037;-63
2023/09/25 11:17:58;;;;;;;7.10;2.17;;;21.10;93.90;;;;;;5017537;28;20038;-63
2023/09/25 11:20:32;;;;;;;3.85;2.00;;;21.20;93.60;;;;;;5003636;28;20091;-63
2023/09/25 11:23:17;;;;;;;3.40;1.90;;;21.30;93.20;;;;;;5000996;28;20560;-63
2023/09/25 11:25:46;;;;;;;3.55;2.10;;;21.30;92.80;;;;;;5012862;28;20038;-63
2023/09/25 11:28:13;;;;;;;2.75;1.77;;;21.30;92.40;;;;;;4999475;28;20096;-63
2023/09/25 11:30:41;;;;;;;3.00;2.03;;;21.30;92.10;;;;;;4980259;28;20060;-63
2023/09/25 11:33:09;;;;;;;4.85;2.03;;;21.30;91.80;;;;;;4989049;28;20759;-63
2023/09/25 11:35:39;;;;;;;4.43;1.80;;;21.30;91.60;;;;;;4972606;28;20033;-63
2023/09/25 11:38:18;;;;;;;3.58;2.03;;;21.40;91.40;;;;;;5003053;28;20490;-63
2023/09/25 11:40:45;;;;;;;2.28;1.65;;;21.40;91.20;;;;;;4986077;28;20049;-63
2023/09/25 11:43:12;;;;;;;4.60;2.28;;;21.40;91.50;;;;;;5010479;28;20447;-63
2023/09/25 11:45:40;;;;;;;3.90;2.10;;;21.30;91.70;;;;;;4962130;28;20209;-64
2023/09/25 11:48:08;;;;;;;3.92;2.05;;;21.30;92.20;;;;;;4986792;28;20081;-64
2023/09/25 11:50:34;;;;;;;3.45;2.20;;;21.40;92.50;;;;;;4974025;28;20050;-64
2023/09/25 11:53:00;;;;;;;4.40;1.80;;;21.50;92.40;;;;;;5001446;28;20569;-64
2023/09/25 11:55:26;;;;;;;3.47;1.80;;;21.60;92.00;;;;;;4972518;28;20751;-64
2023/09/25 11:57:52;;;;;;;5.20;2.00;;;21.60;92.00;;;;;;5004973;28;20049;-64
2023/09/25 12:00:18;;;;;;;2.90;1.60;;;21.70;91.90;;;;;;4973575;28;20084;-64
2023/09/25 12:02:47;;;;;;;3.58;1.90;;;21.90;91.80;;;;;;4985604;28;20056;-64
2023/09/25 12:05:14;;;;;;;4.65;1.80;;;22.30;91.70;;;;;;4986784;28;20033;-64
2023/09/25 12:07:41;;;;;;;5.03;1.88;;;22.60;91.80;;;;;;4993579;28;20045;-65
2023/09/25 12:10:08;;;;;;;4.07;2.00;;;22.80;91.00;;;;;;4991035;28;20132;-64
2023/09/25 12:12:37;;;;;;;3.63;2.03;;;23.00;90.50;;;;;;4988219;28;20054;-64
2023/09/25 12:15:03;;;;;;;4.35;2.15;;;23.20;90.20;;;;;;4986997;28;20058;-64
2023/09/25 12:17:30;;;;;;;3.42;1.60;;;23.40;88.80;;;;;;4986547;28;20574;-65
2023/09/25 12:19:57;;;;;;;3.00;1.80;;;23.40;89.60;;;;;;4981014;28;20510;-63
2023/09/25 12:22:24;;;;;;;4.05;1.80;;;23.30;88.10;;;;;;4977652;28;20049;-64
2023/09/25 12:24:50;;;;;;;2.58;1.80;;;23.10;88.30;;;;;;4986131;28;20041;-63
2023/09/25 12:27:16;;;;;;;4.68;1.70;;;23.00;88.50;;;;;;4990310;28;20034;-64
2023/09/25 12:29:43;;;;;;;2.95;2.08;;;22.90;88.00;;;;;;4984818;28;20470;-64
2023/09/25 12:32:09;;;;;;;4.43;2.08;;;22.70;88.10;;;;;;4964275;28;20038;-63
2023/09/25 12:34:35;;;;;;;5.53;2.10;;;22.60;88.50;;;;;;4992937;28;20056;-63
2023/09/25 12:37:01;;;;;;;4.70;1.52;;;22.50;88.70;;;;;;4977650;28;20046;-64
2023/09/25 12:39:26;;;;;;;3.58;2.13;;;22.30;89.10;;;;;;4963753;28;20048;-64
2023/09/25 12:41:52;;;;;;;5.00;2.00;;;22.30;89.40;;;;;;4954461;28;21952;-63
2023/09/25 12:44:18;;;;;;;4.50;2.30;;;22.10;89.30;;;;;;4990722;28;20553;-64
2023/09/25 12:46:45;;;;;;;3.83;2.17;;;22.00;89.10;;;;;;4981750;28;20042;-64
2023/09/25 12:49:11;;;;;;;5.43;1.88;;;21.90;90.00;;;;;;4993335;28;20492;-63